Ty Lotus — DSNU7 — position and weather

sailwx.info

Track history (hours):
 
Tides and Currents Weather Stations Pressure Air Temp Water Temp Dewpoint Dewpoint Depression Visibility Wind Speed Wind Dir Waves Ship Positions

Ty Lotus

Last reported at 2016-Jul-29 14:33 UTC. Time now 2016-Jul-31 03:32 UTC.
Position N 38°30' E 121°03'.

Length 80 m; draft 6.1 m.

Type: Cargo ship. MMSI: 440324000.

Date/timePositionNaut miles runAvg speedWind from/ knotsBaromVisibWave heightAir tempDewpointWater temp
2016-Jul-29 14:33N 38°30' E 121°03'69 9.8
2016-Jul-29 07:33N 39°25' E 120°09'30 9.9
2016-Jul-29 04:33N 39°49' E 119°46'8 7.2
2016-Jul-29 03:28N 39°56' E 119°42'0 0.0
2016-Jul-29 02:28N 39°56' E 119°42'0 0.0
2016-Jul-29 01:22N 39°56' E 119°42'0 0.0
2016-Jul-29 00:22N 39°56' E 119°42'0 0.0
2016-Jul-28 23:28N 39°56' E 119°42'0 0.0
2016-Jul-28 22:22N 39°56' E 119°42'0 0.0
2016-Jul-28 21:28N 39°56' E 119°42'0 0.0
2016-Jul-28 20:28N 39°56' E 119°42'0 0.0
2016-Jul-28 19:22N 39°56' E 119°42'0 0.0
2016-Jul-28 18:16N 39°56' E 119°42'0 0.0
2016-Jul-28 17:28N 39°56' E 119°42'0 0.0
2016-Jul-28 16:28N 39°56' E 119°42'0 0.0
2016-Jul-28 15:28N 39°56' E 119°42'0 0.0
2016-Jul-28 14:28N 39°56' E 119°42'0 0.0
2016-Jul-28 13:22N 39°56' E 119°42'0 0.0
2016-Jul-28 12:28N 39°56' E 119°42'0 0.0
2016-Jul-28 11:28N 39°56' E 119°42'0 0.0
2016-Jul-28 10:28N 39°56' E 119°42'2 2.0
2016-Jul-28 09:33N 39°54' E 119°42'4 3.2
2016-Jul-28 08:15N 39°51' E 119°45'0 0.0
2016-Jul-28 07:30N 39°51' E 119°45'0 0.0
2016-Jul-28 06:33N 39°51' E 119°45'0 0.2
2016-Jul-28 05:33N 39°51' E 119°45'13 9.9
2016-Jul-28 04:13N 39°39' E 119°50'710.8
2016-Jul-28 03:33N 39°34' E 119°43'88 8.6
2016-Jul-27 17:17N 38°56' E 118°01'810.7
2016-Jul-27 16:32N 38°58' E 117°50'4 2.0
2016-Jul-27 14:28N 38°59' E 117°45'0 0.0
2016-Jul-27 13:28N 38°59' E 117°45'0 0.0
2016-Jul-27 12:28N 38°59' E 117°45'0 0.0
2016-Jul-27 11:28N 38°59' E 117°45'0 0.0
2016-Jul-27 10:22N 38°59' E 117°45'0 0.0
2016-Jul-27 09:28N 38°59' E 117°45'0 0.0
2016-Jul-27 08:28N 38°59' E 117°45'0 0.0
2016-Jul-27 07:28N 38°59' E 117°45'0 0.0
2016-Jul-27 06:33N 38°59' E 117°45'85 6.1
2016-Jul-26 16:32N 38°45' E 119°33'59 9.7
2016-Jul-26 10:28N 38°39' E 120°48'1111.4
2016-Jul-26 09:32N 38°34' E 121°01'16810.5
2016-Jul-25 17:32N 37°23' E 124°14'  
Track history (hours):
 
Tides and Currents Weather Stations Pressure Air Temp Water Temp Dewpoint Dewpoint Depression Visibility Wind Speed Wind Dir Waves Ship Positions

Ty Lotus

Last reported at 2016-Jul-29 14:33 UTC. Time now 2016-Jul-31 03:32 UTC.
Position N 38°30' E 121°03'.

Length 80 m; draft 6.1 m.

Type: Cargo ship. MMSI: 440324000.

Date/timePositionNaut miles runAvg speedWind from/ knotsBaromVisibWave heightAir tempDewpointWater temp
2016-Jul-29 14:33N 38°30' E 121°03'69 9.8
2016-Jul-29 07:33N 39°25' E 120°09'30 9.9
2016-Jul-29 04:33N 39°49' E 119°46'8 7.2
2016-Jul-29 03:28N 39°56' E 119°42'0 0.0
2016-Jul-29 02:28N 39°56' E 119°42'0 0.0
2016-Jul-29 01:22N 39°56' E 119°42'0 0.0
2016-Jul-29 00:22N 39°56' E 119°42'0 0.0
2016-Jul-28 23:28N 39°56' E 119°42'0 0.0
2016-Jul-28 22:22N 39°56' E 119°42'0 0.0
2016-Jul-28 21:28N 39°56' E 119°42'0 0.0
2016-Jul-28 20:28N 39°56' E 119°42'0 0.0
2016-Jul-28 19:22N 39°56' E 119°42'0 0.0
2016-Jul-28 18:16N 39°56' E 119°42'0 0.0
2016-Jul-28 17:28N 39°56' E 119°42'0 0.0
2016-Jul-28 16:28N 39°56' E 119°42'0 0.0
2016-Jul-28 15:28N 39°56' E 119°42'0 0.0
2016-Jul-28 14:28N 39°56' E 119°42'0 0.0
2016-Jul-28 13:22N 39°56' E 119°42'0 0.0
2016-Jul-28 12:28N 39°56' E 119°42'0 0.0
2016-Jul-28 11:28N 39°56' E 119°42'0 0.0
2016-Jul-28 10:28N 39°56' E 119°42'2 2.0
2016-Jul-28 09:33N 39°54' E 119°42'4 3.2
2016-Jul-28 08:15N 39°51' E 119°45'0 0.0
2016-Jul-28 07:30N 39°51' E 119°45'0 0.0
2016-Jul-28 06:33N 39°51' E 119°45'0 0.2
2016-Jul-28 05:33N 39°51' E 119°45'13 9.9
2016-Jul-28 04:13N 39°39' E 119°50'710.8
2016-Jul-28 03:33N 39°34' E 119°43'88 8.6
2016-Jul-27 17:17N 38°56' E 118°01'810.7
2016-Jul-27 16:32N 38°58' E 117°50'4 2.0
2016-Jul-27 14:28N 38°59' E 117°45'0 0.0
2016-Jul-27 13:28N 38°59' E 117°45'0 0.0
2016-Jul-27 12:28N 38°59' E 117°45'0 0.0
2016-Jul-27 11:28N 38°59' E 117°45'0 0.0
2016-Jul-27 10:22N 38°59' E 117°45'0 0.0
2016-Jul-27 09:28N 38°59' E 117°45'0 0.0
2016-Jul-27 08:28N 38°59' E 117°45'0 0.0
2016-Jul-27 07:28N 38°59' E 117°45'0 0.0
2016-Jul-27 06:33N 38°59' E 117°45'85 6.1
2016-Jul-26 16:32N 38°45' E 119°33'59 9.7
2016-Jul-26 10:28N 38°39' E 120°48'1111.4
2016-Jul-26 09:32N 38°34' E 121°01'16810.5
2016-Jul-25 17:32N 37°23' E 124°14'  

Dump ship's entire track history